Portada
METAR-TAF:

METAR-TAF

Aeroports :

General Santos, Filipines

latitud: 06-03-29N, longitud: 125-05-46E, altitud: 154 m

Observació

L'informe es va fer fa 48 minuts, a les 02:00 UTC
Vent 2 kt del Sud-Est
Temperatura 30°C
Humitat 62%
Pressió 1010 hPa
Visibilitat 10 km o més
Escasses núvols a una alçada de 1800 ft

METAR: RPMR 300200Z 14002KT 9999 FEW018 30/22 Q1010 RMK A2983

Hora: 10:48 (02:48 UTC)

Pronòstic

L'informe es va fer fa 3 hores i 48 minuts, a les 23:00 UTC
Pronòstic vàlid del 30 a les 00 UTC al 30 a les 24 UTC
Vent 6 kt del Sud
Visibilitat 10 km o més
Escasses núvols a una alçada de 1800 ft
Núvols disperses a una alçada de 8000 ft
Cel ennuvolat a una alçada de 25000 ft
Temporalment
l' 30 a les 00 UTC al 30 a les 06 UTC
Vent 10 kt del Est/Sud-Est
Escasses núvols a una alçada de 1700 ft, Cumulonimbus.
Núvols disperses a una alçada de 1800 ft
Cel ennuvolat a una alçada de 8000 ft

TAF: RPMR 292300Z 3000/3024 18006KT 9999 FEW018 SCT080 BKN250 TEMPO 3000/3006 12010KT FEW017CB SCT018 BKN080

Observacions i pronòstics meteorològics de més de 4000 aeroports (METAR i TAF).

Les estacions disponibles són els punts grocs i vermells al mapa.

Posi el ratolí al punt desitjat per veure el nom de l'estació.

Feu clic per veure les observacions i els pronòstics meteorològics.

Per canviar el mapa: feu clic els botons verds amb una creu de color negre per apropar; al botó verd amb un guió per allunyar la imatge; o en les fletxes verdes per a mapes adjacents.


METAR-TAF: